sensor_id;sensor_type;location;lat;lon;timestamp;P1;durP1;ratioP1;P2;durP2;ratioP2
56299;SDS011;42209;6.376;-10.782;2023-08-01T00:00:07;4.43;;;4.05;;
56299;SDS011;42209;6.376;-10.782;2023-08-01T00:02:37;4.50;;;4.07;;
56299;SDS011;42209;6.376;-10.782;2023-08-01T00:05:06;4.63;;;3.88;;
56299;SDS011;42209;6.376;-10.782;2023-08-01T00:07:35;4.20;;;3.28;;
56299;SDS011;42209;6.376;-10.782;2023-08-01T00:10:04;3.80;;;3.47;;
56299;SDS011;42209;6.376;-10.782;2023-08-01T00:12:33;4.25;;;3.28;;
56299;SDS011;42209;6.376;-10.782;2023-08-01T00:15:03;3.55;;;3.22;;
56299;SDS011;42209;6.376;-10.782;2023-08-01T00:17:32;3.90;;;3.53;;
56299;SDS011;42209;6.376;-10.782;2023-08-01T00:20:02;3.35;;;3.05;;
56299;SDS011;42209;6.376;-10.782;2023-08-01T00:22:30;3.70;;;3.38;;
56299;SDS011;42209;6.376;-10.782;2023-08-01T00:24:59;4.10;;;2.97;;
56299;SDS011;42209;6.376;-10.782;2023-08-01T00:27:27;3.72;;;3.42;;
56299;SDS011;42209;6.376;-10.782;2023-08-01T00:30:07;3.67;;;2.83;;
56299;SDS011;42209;6.376;-10.782;2023-08-01T00:32:36;3.10;;;2.80;;
56299;SDS011;42209;6.376;-10.782;2023-08-01T00:35:05;3.38;;;3.08;;
56299;SDS011;42209;6.376;-10.782;2023-08-01T00:40:02;4.07;;;3.67;;
56299;SDS011;42209;6.376;-10.782;2023-08-01T00:44:58;3.40;;;2.73;;
56299;SDS011;42209;6.376;-10.782;2023-08-01T00:47:27;3.40;;;3.10;;
56299;SDS011;42209;6.376;-10.782;2023-08-01T00:49:56;3.65;;;3.30;;
56299;SDS011;42209;6.376;-10.782;2023-08-01T00:52:24;3.78;;;3.42;;
56299;SDS011;42209;6.376;-10.782;2023-08-01T00:54:53;4.13;;;3.70;;
56299;SDS011;42209;6.376;-10.782;2023-08-01T00:57:22;3.30;;;3.00;;
56299;SDS011;42209;6.376;-10.782;2023-08-01T00:59:51;3.42;;;3.13;;
56299;SDS011;42209;6.376;-10.782;2023-08-01T01:02:20;3.10;;;2.78;;
56299;SDS011;42209;6.376;-10.782;2023-08-01T01:04:49;3.15;;;2.83;;
56299;SDS011;42209;6.376;-10.782;2023-08-01T01:07:17;3.88;;;3.35;;
56299;SDS011;42209;6.376;-10.782;2023-08-01T01:09:46;2.90;;;2.70;;
56299;SDS011;42209;6.376;-10.782;2023-08-01T01:12:15;4.00;;;3.38;;
56299;SDS011;42209;6.376;-10.782;2023-08-01T01:14:44;3.03;;;2.83;;
56299;SDS011;42209;6.376;-10.782;2023-08-01T01:17:12;3.35;;;3.05;;
56299;SDS011;42209;6.376;-10.782;2023-08-01T01:19:41;3.03;;;2.63;;
56299;SDS011;42209;6.376;-10.782;2023-08-01T01:22:09;3.40;;;3.05;;
56299;SDS011;42209;6.376;-10.782;2023-08-01T01:24:38;3.67;;;2.45;;
56299;SDS011;42209;6.376;-10.782;2023-08-01T01:27:08;2.63;;;2.42;;
56299;SDS011;42209;6.376;-10.782;2023-08-01T01:29:37;3.28;;;2.92;;
56299;SDS011;42209;6.376;-10.782;2023-08-01T01:32:08;3.28;;;3.03;;
56299;SDS011;42209;6.376;-10.782;2023-08-01T01:34:37;3.30;;;3.00;;
56299;SDS011;42209;6.376;-10.782;2023-08-01T01:37:06;3.42;;;2.75;;
56299;SDS011;42209;6.376;-10.782;2023-08-01T01:39:34;3.28;;;3.03;;
56299;SDS011;42209;6.376;-10.782;2023-08-01T01:42:03;2.70;;;2.50;;
56299;SDS011;42209;6.376;-10.782;2023-08-01T01:44:31;3.42;;;2.75;;
56299;SDS011;42209;6.376;-10.782;2023-08-01T01:47:00;3.65;;;3.38;;
56299;SDS011;42209;6.376;-10.782;2023-08-01T01:49:28;3.85;;;3.45;;
56299;SDS011;42209;6.376;-10.782;2023-08-01T01:51:56;3.40;;;3.10;;
56299;SDS011;42209;6.376;-10.782;2023-08-01T01:54:25;2.75;;;2.55;;
56299;SDS011;42209;6.376;-10.782;2023-08-01T01:56:53;3.17;;;2.88;;
56299;SDS011;42209;6.376;-10.782;2023-08-01T01:59:22;2.35;;;2.15;;
56299;SDS011;42209;6.376;-10.782;2023-08-01T02:01:50;2.67;;;2.45;;
56299;SDS011;42209;6.376;-10.782;2023-08-01T02:04:19;3.50;;;3.20;;
56299;SDS011;42209;6.376;-10.782;2023-08-01T02:06:48;3.30;;;3.00;;
56299;SDS011;42209;6.376;-10.782;2023-08-01T02:09:16;2.80;;;2.60;;
56299;SDS011;42209;6.376;-10.782;2023-08-01T02:11:45;3.88;;;2.92;;
56299;SDS011;42209;6.376;-10.782;2023-08-01T02:14:14;2.85;;;2.58;;
56299;SDS011;42209;6.376;-10.782;2023-08-01T02:16:42;2.92;;;2.60;;
56299;SDS011;42209;6.376;-10.782;2023-08-01T02:19:10;3.78;;;3.13;;
56299;SDS011;42209;6.376;-10.782;2023-08-01T02:21:39;2.92;;;2.53;;
56299;SDS011;42209;6.376;-10.782;2023-08-01T02:24:07;2.72;;;2.53;;
56299;SDS011;42209;6.376;-10.782;2023-08-01T02:26:36;2.92;;;2.63;;
56299;SDS011;42209;6.376;-10.782;2023-08-01T02:29:05;3.10;;;2.78;;
56299;SDS011;42209;6.376;-10.782;2023-08-01T02:31:33;3.35;;;2.70;;
56299;SDS011;42209;6.376;-10.782;2023-08-01T02:34:02;3.35;;;2.30;;
56299;SDS011;42209;6.376;-10.782;2023-08-01T02:36:30;2.33;;;2.13;;
56299;SDS011;42209;6.376;-10.782;2023-08-01T02:38:58;3.58;;;3.13;;
56299;SDS011;42209;6.376;-10.782;2023-08-01T02:41:27;2.33;;;2.17;;
56299;SDS011;42209;6.376;-10.782;2023-08-01T02:43:56;3.00;;;2.53;;
56299;SDS011;42209;6.376;-10.782;2023-08-01T02:46:24;2.88;;;2.55;;
56299;SDS011;42209;6.376;-10.782;2023-08-01T02:48:52;2.85;;;2.60;;
56299;SDS011;42209;6.376;-10.782;2023-08-01T02:51:22;3.30;;;2.25;;
56299;SDS011;42209;6.376;-10.782;2023-08-01T02:53:50;3.40;;;3.10;;
56299;SDS011;42209;6.376;-10.782;2023-08-01T02:56:18;2.72;;;2.53;;
56299;SDS011;42209;6.376;-10.782;2023-08-01T02:58:47;4.18;;;2.97;;
56299;SDS011;42209;6.376;-10.782;2023-08-01T03:01:15;3.13;;;2.50;;
56299;SDS011;42209;6.376;-10.782;2023-08-01T03:03:44;3.58;;;2.85;;
56299;SDS011;42209;6.376;-10.782;2023-08-01T03:06:17;3.17;;;2.90;;
56299;SDS011;42209;6.376;-10.782;2023-08-01T03:08:48;3.03;;;2.72;;
56299;SDS011;42209;6.376;-10.782;2023-08-01T03:11:17;3.20;;;2.92;;
56299;SDS011;42209;6.376;-10.782;2023-08-01T03:13:45;3.67;;;2.75;;
56299;SDS011;42209;6.376;-10.782;2023-08-01T03:16:14;2.33;;;2.13;;
56299;SDS011;42209;6.376;-10.782;2023-08-01T03:18:42;2.85;;;2.53;;
56299;SDS011;42209;6.376;-10.782;2023-08-01T03:21:11;2.60;;;2.25;;
56299;SDS011;42209;6.376;-10.782;2023-08-01T03:23:39;3.78;;;2.97;;
56299;SDS011;42209;6.376;-10.782;2023-08-01T03:26:07;3.38;;;3.08;;
56299;SDS011;42209;6.376;-10.782;2023-08-01T03:28:36;3.45;;;2.45;;
56299;SDS011;42209;6.376;-10.782;2023-08-01T03:31:05;2.83;;;2.22;;
56299;SDS011;42209;6.376;-10.782;2023-08-01T03:33:34;3.92;;;2.13;;
56299;SDS011;42209;6.376;-10.782;2023-08-01T03:36:02;2.55;;;2.35;;
56299;SDS011;42209;6.376;-10.782;2023-08-01T03:40:59;3.63;;;2.53;;
56299;SDS011;42209;6.376;-10.782;2023-08-01T03:43:27;3.17;;;2.58;;
56299;SDS011;42209;6.376;-10.782;2023-08-01T03:45:56;3.00;;;2.75;;
56299;SDS011;42209;6.376;-10.782;2023-08-01T03:48:24;3.65;;;2.50;;
56299;SDS011;42209;6.376;-10.782;2023-08-01T03:50:53;2.72;;;2.20;;
56299;SDS011;42209;6.376;-10.782;2023-08-01T03:53:21;3.13;;;2.78;;
56299;SDS011;42209;6.376;-10.782;2023-08-01T03:55:50;2.75;;;2.45;;
56299;SDS011;42209;6.376;-10.782;2023-08-01T03:58:18;3.85;;;2.80;;
56299;SDS011;42209;6.376;-10.782;2023-08-01T04:00:47;3.67;;;2.80;;
56299;SDS011;42209;6.376;-10.782;2023-08-01T04:03:15;3.05;;;2.75;;
56299;SDS011;42209;6.376;-10.782;2023-08-01T04:08:12;3.22;;;2.78;;
56299;SDS011;42209;6.376;-10.782;2023-08-01T04:10:40;3.00;;;2.80;;
56299;SDS011;42209;6.376;-10.782;2023-08-01T04:13:09;3.58;;;3.08;;
56299;SDS011;42209;6.376;-10.782;2023-08-01T04:18:05;3.25;;;2.70;;
56299;SDS011;42209;6.376;-10.782;2023-08-01T04:20:35;2.53;;;2.00;;
56299;SDS011;42209;6.376;-10.782;2023-08-01T04:23:04;3.08;;;2.78;;
56299;SDS011;42209;6.376;-10.782;2023-08-01T04:25:33;3.35;;;2.70;;
56299;SDS011;42209;6.376;-10.782;2023-08-01T04:28:01;3.40;;;3.10;;
56299;SDS011;42209;6.376;-10.782;2023-08-01T04:30:30;2.88;;;2.60;;
56299;SDS011;42209;6.376;-10.782;2023-08-01T04:32:58;3.03;;;2.72;;
56299;SDS011;42209;6.376;-10.782;2023-08-01T04:35:27;2.92;;;2.58;;
56299;SDS011;42209;6.376;-10.782;2023-08-01T04:37:55;3.00;;;2.53;;
56299;SDS011;42209;6.376;-10.782;2023-08-01T04:40:24;3.03;;;2.40;;
56299;SDS011;42209;6.376;-10.782;2023-08-01T04:42:52;2.67;;;2.47;;
56299;SDS011;42209;6.376;-10.782;2023-08-01T04:45:20;3.70;;;2.60;;
56299;SDS011;42209;6.376;-10.782;2023-08-01T04:47:49;2.45;;;2.25;;
56299;SDS011;42209;6.376;-10.782;2023-08-01T04:50:17;2.55;;;1.92;;
56299;SDS011;42209;6.376;-10.782;2023-08-01T04:52:45;2.63;;;2.13;;
56299;SDS011;42209;6.376;-10.782;2023-08-01T04:55:14;2.40;;;2.20;;
56299;SDS011;42209;6.376;-10.782;2023-08-01T04:57:42;2.85;;;2.60;;
56299;SDS011;42209;6.376;-10.782;2023-08-01T05:00:11;2.40;;;2.20;;
56299;SDS011;42209;6.376;-10.782;2023-08-01T05:02:39;3.15;;;2.85;;
56299;SDS011;42209;6.376;-10.782;2023-08-01T05:05:08;2.92;;;2.63;;
56299;SDS011;42209;6.376;-10.782;2023-08-01T05:07:36;3.35;;;3.00;;
56299;SDS011;42209;6.376;-10.782;2023-08-01T05:10:05;3.63;;;2.65;;
56299;SDS011;42209;6.376;-10.782;2023-08-01T05:12:33;3.28;;;2.85;;
56299;SDS011;42209;6.376;-10.782;2023-08-01T05:15:02;3.42;;;2.90;;
56299;SDS011;42209;6.376;-10.782;2023-08-01T05:17:31;3.30;;;2.53;;
56299;SDS011;42209;6.376;-10.782;2023-08-01T05:19:59;3.00;;;2.70;;
56299;SDS011;42209;6.376;-10.782;2023-08-01T05:22:28;2.60;;;2.40;;
56299;SDS011;42209;6.376;-10.782;2023-08-01T05:24:56;2.97;;;2.30;;
56299;SDS011;42209;6.376;-10.782;2023-08-01T05:29:53;3.63;;;2.50;;
56299;SDS011;42209;6.376;-10.782;2023-08-01T05:32:21;2.63;;;2.30;;
56299;SDS011;42209;6.376;-10.782;2023-08-01T05:34:50;2.58;;;2.38;;
56299;SDS011;42209;6.376;-10.782;2023-08-01T05:37:18;2.95;;;2.55;;
56299;SDS011;42209;6.376;-10.782;2023-08-01T05:39:46;2.40;;;2.20;;
56299;SDS011;42209;6.376;-10.782;2023-08-01T05:42:15;3.28;;;2.92;;
56299;SDS011;42209;6.376;-10.782;2023-08-01T05:44:43;2.63;;;2.20;;
56299;SDS011;42209;6.376;-10.782;2023-08-01T05:47:12;2.85;;;2.58;;
56299;SDS011;42209;6.376;-10.782;2023-08-01T05:49:40;2.50;;;2.30;;
56299;SDS011;42209;6.376;-10.782;2023-08-01T05:52:09;2.65;;;2.08;;
56299;SDS011;42209;6.376;-10.782;2023-08-01T05:54:37;2.85;;;1.92;;
56299;SDS011;42209;6.376;-10.782;2023-08-01T05:57:07;3.22;;;2.92;;
56299;SDS011;42209;6.376;-10.782;2023-08-01T05:59:36;3.33;;;2.10;;
56299;SDS011;42209;6.376;-10.782;2023-08-01T06:02:05;3.97;;;2.67;;
56299;SDS011;42209;6.376;-10.782;2023-08-01T06:04:33;3.30;;;3.00;;
56299;SDS011;42209;6.376;-10.782;2023-08-01T06:08:27;2.72;;;2.33;;
56299;SDS011;42209;6.376;-10.782;2023-08-01T06:13:24;3.15;;;2.35;;
56299;SDS011;42209;6.376;-10.782;2023-08-01T06:15:53;2.50;;;2.30;;
56299;SDS011;42209;6.376;-10.782;2023-08-01T06:18:21;3.00;;;2.53;;
56299;SDS011;42209;6.376;-10.782;2023-08-01T06:20:50;2.78;;;2.33;;
56299;SDS011;42209;6.376;-10.782;2023-08-01T06:23:18;3.60;;;2.67;;
56299;SDS011;42209;6.376;-10.782;2023-08-01T06:25:46;3.65;;;2.78;;
56299;SDS011;42209;6.376;-10.782;2023-08-01T06:28:15;3.10;;;2.80;;
56299;SDS011;42209;6.376;-10.782;2023-08-01T06:30:44;3.97;;;2.40;;
56299;SDS011;42209;6.376;-10.782;2023-08-01T06:33:13;4.10;;;2.40;;
56299;SDS011;42209;6.376;-10.782;2023-08-01T06:35:43;3.17;;;2.10;;
56299;SDS011;42209;6.376;-10.782;2023-08-01T06:38:11;2.85;;;2.40;;
56299;SDS011;42209;6.376;-10.782;2023-08-01T06:40:40;2.67;;;2.47;;
56299;SDS011;42209;6.376;-10.782;2023-08-01T06:43:11;2.30;;;2.05;;
56299;SDS011;42209;6.376;-10.782;2023-08-01T06:45:39;2.97;;;2.40;;
56299;SDS011;42209;6.376;-10.782;2023-08-01T06:48:08;2.92;;;2.72;;
56299;SDS011;42209;6.376;-10.782;2023-08-01T06:50:36;5.03;;;2.50;;
56299;SDS011;42209;6.376;-10.782;2023-08-01T06:53:05;4.18;;;2.67;;
56299;SDS011;42209;6.376;-10.782;2023-08-01T06:58:02;7.30;;;3.10;;
56299;SDS011;42209;6.376;-10.782;2023-08-01T07:00:30;4.55;;;2.72;;
56299;SDS011;42209;6.376;-10.782;2023-08-01T07:02:59;4.28;;;2.30;;
56299;SDS011;42209;6.376;-10.782;2023-08-01T07:05:27;4.45;;;3.03;;
56299;SDS011;42209;6.376;-10.782;2023-08-01T07:07:56;3.22;;;2.17;;
56299;SDS011;42209;6.376;-10.782;2023-08-01T07:15:21;6.60;;;3.05;;
56299;SDS011;42209;6.376;-10.782;2023-08-01T07:17:50;6.65;;;3.13;;
56299;SDS011;42209;6.376;-10.782;2023-08-01T07:20:19;7.95;;;2.85;;
56299;SDS011;42209;6.376;-10.782;2023-08-01T07:22:47;7.63;;;3.80;;
56299;SDS011;42209;6.376;-10.782;2023-08-01T07:25:15;5.55;;;2.50;;
56299;SDS011;42209;6.376;-10.782;2023-08-01T07:27:45;5.78;;;3.28;;
56299;SDS011;42209;6.376;-10.782;2023-08-01T07:30:14;7.63;;;3.13;;
56299;SDS011;42209;6.376;-10.782;2023-08-01T07:32:42;5.55;;;3.05;;
56299;SDS011;42209;6.376;-10.782;2023-08-01T07:35:11;5.90;;;3.00;;
56299;SDS011;42209;6.376;-10.782;2023-08-01T07:37:39;5.55;;;2.88;;
56299;SDS011;42209;6.376;-10.782;2023-08-01T07:40:08;5.28;;;2.80;;
56299;SDS011;42209;6.376;-10.782;2023-08-01T07:42:37;7.07;;;3.05;;
56299;SDS011;42209;6.376;-10.782;2023-08-01T07:45:05;5.05;;;2.40;;
56299;SDS011;42209;6.376;-10.782;2023-08-01T07:47:35;3.42;;;2.30;;
56299;SDS011;42209;6.376;-10.782;2023-08-01T07:50:03;4.55;;;2.97;;
56299;SDS011;42209;6.376;-10.782;2023-08-01T07:52:32;2.95;;;2.47;;
56299;SDS011;42209;6.376;-10.782;2023-08-01T07:55:01;3.13;;;2.05;;
56299;SDS011;42209;6.376;-10.782;2023-08-01T07:57:30;3.70;;;2.30;;
56299;SDS011;42209;6.376;-10.782;2023-08-01T07:59:58;5.50;;;2.28;;
56299;SDS011;42209;6.376;-10.782;2023-08-01T08:02:39;3.78;;;2.55;;
56299;SDS011;42209;6.376;-10.782;2023-08-01T08:05:10;4.18;;;2.30;;
56299;SDS011;42209;6.376;-10.782;2023-08-01T08:07:39;4.22;;;2.30;;
56299;SDS011;42209;6.376;-10.782;2023-08-01T08:10:07;4.47;;;2.65;;
56299;SDS011;42209;6.376;-10.782;2023-08-01T08:12:36;3.10;;;2.17;;
56299;SDS011;42209;6.376;-10.782;2023-08-01T08:15:05;4.85;;;1.80;;
56299;SDS011;42209;6.376;-10.782;2023-08-01T08:17:34;5.60;;;2.80;;
56299;SDS011;42209;6.376;-10.782;2023-08-01T08:20:03;3.55;;;2.45;;
56299;SDS011;42209;6.376;-10.782;2023-08-01T08:22:32;4.32;;;2.17;;
56299;SDS011;42209;6.376;-10.782;2023-08-01T08:25:01;5.05;;;2.28;;
56299;SDS011;42209;6.376;-10.782;2023-08-01T08:27:29;4.53;;;1.80;;
56299;SDS011;42209;6.376;-10.782;2023-08-01T08:29:58;4.07;;;2.13;;
56299;SDS011;42209;6.376;-10.782;2023-08-01T08:32:26;6.28;;;2.60;;
56299;SDS011;42209;6.376;-10.782;2023-08-01T08:34:55;6.05;;;2.38;;
56299;SDS011;42209;6.376;-10.782;2023-08-01T08:37:23;5.70;;;2.25;;
56299;SDS011;42209;6.376;-10.782;2023-08-01T08:42:20;4.53;;;2.17;;
56299;SDS011;42209;6.376;-10.782;2023-08-01T08:44:49;5.13;;;2.08;;
56299;SDS011;42209;6.376;-10.782;2023-08-01T08:47:25;6.78;;;2.28;;
56299;SDS011;42209;6.376;-10.782;2023-08-01T08:49:55;6.25;;;2.20;;
56299;SDS011;42209;6.376;-10.782;2023-08-01T08:52:25;4.70;;;1.52;;
56299;SDS011;42209;6.376;-10.782;2023-08-01T08:54:54;3.25;;;1.42;;
56299;SDS011;42209;6.376;-10.782;2023-08-01T08:57:23;5.25;;;2.28;;
56299;SDS011;42209;6.376;-10.782;2023-08-01T09:02:20;7.43;;;1.90;;
56299;SDS011;42209;6.376;-10.782;2023-08-01T09:04:49;3.42;;;1.70;;
56299;SDS011;42209;6.376;-10.782;2023-08-01T09:07:18;4.22;;;1.98;;
56299;SDS011;42209;6.376;-10.782;2023-08-01T09:09:51;4.85;;;2.17;;
56299;SDS011;42209;6.376;-10.782;2023-08-01T09:12:20;3.58;;;2.10;;
56299;SDS011;42209;6.376;-10.782;2023-08-01T09:14:50;5.45;;;2.40;;
56299;SDS011;42209;6.376;-10.782;2023-08-01T09:17:20;3.78;;;2.33;;
56299;SDS011;42209;6.376;-10.782;2023-08-01T09:19:48;4.13;;;2.50;;
56299;SDS011;42209;6.376;-10.782;2023-08-01T09:22:22;4.03;;;2.17;;
56299;SDS011;42209;6.376;-10.782;2023-08-01T09:24:51;3.75;;;2.13;;
56299;SDS011;42209;6.376;-10.782;2023-08-01T09:27:22;4.28;;;2.75;;
56299;SDS011;42209;6.376;-10.782;2023-08-01T09:29:50;3.00;;;1.80;;
56299;SDS011;42209;6.376;-10.782;2023-08-01T09:34:47;4.70;;;1.50;;
56299;SDS011;42209;6.376;-10.782;2023-08-01T09:37:26;3.30;;;1.67;;
56299;SDS011;42209;6.376;-10.782;2023-08-01T09:40:14;2.78;;;1.77;;
56299;SDS011;42209;6.376;-10.782;2023-08-01T09:42:44;3.53;;;1.85;;
56299;SDS011;42209;6.376;-10.782;2023-08-01T09:45:13;7.97;;;2.30;;
56299;SDS011;42209;6.376;-10.782;2023-08-01T09:47:44;4.75;;;2.30;;
56299;SDS011;42209;6.376;-10.782;2023-08-01T09:50:20;3.30;;;1.55;;
56299;SDS011;42209;6.376;-10.782;2023-08-01T09:52:51;4.03;;;1.60;;
56299;SDS011;42209;6.376;-10.782;2023-08-01T09:55:28;3.28;;;1.88;;
56299;SDS011;42209;6.376;-10.782;2023-08-01T09:58:01;3.70;;;1.83;;
56299;SDS011;42209;6.376;-10.782;2023-08-01T10:00:34;3.72;;;2.05;;
56299;SDS011;42209;6.376;-10.782;2023-08-01T10:03:04;5.07;;;1.60;;
56299;SDS011;42209;6.376;-10.782;2023-08-01T10:05:34;3.10;;;1.65;;
56299;SDS011;42209;6.376;-10.782;2023-08-01T10:08:03;3.30;;;1.55;;
56299;SDS011;42209;6.376;-10.782;2023-08-01T10:10:32;3.53;;;1.52;;
56299;SDS011;42209;6.376;-10.782;2023-08-01T10:13:02;5.03;;;2.20;;
56299;SDS011;42209;6.376;-10.782;2023-08-01T10:15:31;4.40;;;2.30;;
56299;SDS011;42209;6.376;-10.782;2023-08-01T10:18:00;2.67;;;1.48;;
56299;SDS011;42209;6.376;-10.782;2023-08-01T10:20:29;2.72;;;1.85;;
56299;SDS011;42209;6.376;-10.782;2023-08-01T10:22:58;2.72;;;1.33;;
56299;SDS011;42209;6.376;-10.782;2023-08-01T10:25:28;3.42;;;1.70;;
56299;SDS011;42209;6.376;-10.782;2023-08-01T10:28:01;3.38;;;1.92;;
56299;SDS011;42209;6.376;-10.782;2023-08-01T10:30:34;3.63;;;1.55;;
56299;SDS011;42209;6.376;-10.782;2023-08-01T10:33:04;2.45;;;1.50;;
56299;SDS011;42209;6.376;-10.782;2023-08-01T10:35:36;2.50;;;1.50;;
56299;SDS011;42209;6.376;-10.782;2023-08-01T10:38:07;4.40;;;1.50;;
56299;SDS011;42209;6.376;-10.782;2023-08-01T10:40:40;2.67;;;1.60;;
56299;SDS011;42209;6.376;-10.782;2023-08-01T10:43:19;1.83;;;1.35;;
56299;SDS011;42209;6.376;-10.782;2023-08-01T10:46:04;4.70;;;1.98;;
56299;SDS011;42209;6.376;-10.782;2023-08-01T10:48:33;3.17;;;1.17;;
56299;SDS011;42209;6.376;-10.782;2023-08-01T10:51:03;2.95;;;1.33;;
56299;SDS011;42209;6.376;-10.782;2023-08-01T10:53:38;2.25;;;1.67;;
56299;SDS011;42209;6.376;-10.782;2023-08-01T10:56:15;4.60;;;2.45;;
56299;SDS011;42209;6.376;-10.782;2023-08-01T10:58:46;3.22;;;1.80;;
56299;SDS011;42209;6.376;-10.782;2023-08-01T11:01:14;4.30;;;2.35;;
56299;SDS011;42209;6.376;-10.782;2023-08-01T11:03:43;4.72;;;2.35;;
56299;SDS011;42209;6.376;-10.782;2023-08-01T11:06:12;4.50;;;1.88;;
56299;SDS011;42209;6.376;-10.782;2023-08-01T11:08:40;3.42;;;1.83;;
56299;SDS011;42209;6.376;-10.782;2023-08-01T11:11:12;5.63;;;2.67;;
56299;SDS011;42209;6.376;-10.782;2023-08-01T11:13:49;5.47;;;2.95;;
56299;SDS011;42209;6.376;-10.782;2023-08-01T11:16:18;3.25;;;1.85;;
56299;SDS011;42209;6.376;-10.782;2023-08-01T11:21:24;4.88;;;2.63;;
56299;SDS011;42209;6.376;-10.782;2023-08-01T11:23:56;6.15;;;3.22;;
56299;SDS011;42209;6.376;-10.782;2023-08-01T11:28:53;4.38;;;2.65;;
56299;SDS011;42209;6.376;-10.782;2023-08-01T11:31:21;7.32;;;3.17;;
56299;SDS011;42209;6.376;-10.782;2023-08-01T11:33:56;5.45;;;2.88;;
56299;SDS011;42209;6.376;-10.782;2023-08-01T11:36:26;5.80;;;3.45;;
56299;SDS011;42209;6.376;-10.782;2023-08-01T11:38:58;7.43;;;3.17;;
56299;SDS011;42209;6.376;-10.782;2023-08-01T11:41:28;4.18;;;2.88;;
56299;SDS011;42209;6.376;-10.782;2023-08-01T11:44:00;9.85;;;3.10;;
56299;SDS011;42209;6.376;-10.782;2023-08-01T11:46:33;4.60;;;2.83;;
56299;SDS011;42209;6.376;-10.782;2023-08-01T11:49:03;7.53;;;3.38;;
56299;SDS011;42209;6.376;-10.782;2023-08-01T11:51:39;4.57;;;3.15;;
56299;SDS011;42209;6.376;-10.782;2023-08-01T11:54:08;5.63;;;2.60;;
56299;SDS011;42209;6.376;-10.782;2023-08-01T11:56:39;5.88;;;2.60;;
56299;SDS011;42209;6.376;-10.782;2023-08-01T11:59:09;6.97;;;3.17;;
56299;SDS011;42209;6.376;-10.782;2023-08-01T12:01:48;7.13;;;2.45;;
56299;SDS011;42209;6.376;-10.782;2023-08-01T12:04:26;5.47;;;2.83;;
56299;SDS011;42209;6.376;-10.782;2023-08-01T12:06:55;4.47;;;2.30;;
56299;SDS011;42209;6.376;-10.782;2023-08-01T12:09:23;5.93;;;2.70;;
56299;SDS011;42209;6.376;-10.782;2023-08-01T12:12:00;6.75;;;3.22;;
56299;SDS011;42209;6.376;-10.782;2023-08-01T12:14:28;7.88;;;2.90;;
56299;SDS011;42209;6.376;-10.782;2023-08-01T12:16:57;4.07;;;2.65;;
56299;SDS011;42209;6.376;-10.782;2023-08-01T12:21:54;5.47;;;2.65;;
56299;SDS011;42209;6.376;-10.782;2023-08-01T12:24:23;5.78;;;2.78;;
56299;SDS011;42209;6.376;-10.782;2023-08-01T12:26:51;6.05;;;2.70;;
56299;SDS011;42209;6.376;-10.782;2023-08-01T12:29:20;8.38;;;3.03;;
56299;SDS011;42209;6.376;-10.782;2023-08-01T12:31:48;5.85;;;2.60;;
56299;SDS011;42209;6.376;-10.782;2023-08-01T12:34:17;5.82;;;3.20;;
56299;SDS011;42209;6.376;-10.782;2023-08-01T12:39:14;4.68;;;2.08;;
56299;SDS011;42209;6.376;-10.782;2023-08-01T12:41:43;3.13;;;2.50;;
56299;SDS011;42209;6.376;-10.782;2023-08-01T12:44:12;4.22;;;2.60;;
56299;SDS011;42209;6.376;-10.782;2023-08-01T12:46:41;4.90;;;2.65;;
56299;SDS011;42209;6.376;-10.782;2023-08-01T12:49:10;4.07;;;2.45;;
56299;SDS011;42209;6.376;-10.782;2023-08-01T12:51:39;6.60;;;2.45;;
56299;SDS011;42209;6.376;-10.782;2023-08-01T12:54:07;7.05;;;2.03;;
56299;SDS011;42209;6.376;-10.782;2023-08-01T12:56:37;4.35;;;2.33;;
56299;SDS011;42209;6.376;-10.782;2023-08-01T12:59:05;5.28;;;2.28;;
56299;SDS011;42209;6.376;-10.782;2023-08-01T13:01:34;4.60;;;2.50;;
56299;SDS011;42209;6.376;-10.782;2023-08-01T13:04:03;5.85;;;2.50;;
56299;SDS011;42209;6.376;-10.782;2023-08-01T13:06:32;6.28;;;3.17;;
56299;SDS011;42209;6.376;-10.782;2023-08-01T13:09:06;5.35;;;2.05;;
56299;SDS011;42209;6.376;-10.782;2023-08-01T13:11:35;5.90;;;2.30;;
56299;SDS011;42209;6.376;-10.782;2023-08-01T13:14:03;6.68;;;2.00;;
56299;SDS011;42209;6.376;-10.782;2023-08-01T13:16:32;4.90;;;2.13;;
56299;SDS011;42209;6.376;-10.782;2023-08-01T13:19:00;3.75;;;1.95;;
56299;SDS011;42209;6.376;-10.782;2023-08-01T13:21:29;3.70;;;2.20;;
56299;SDS011;42209;6.376;-10.782;2023-08-01T13:23:59;4.50;;;2.20;;
56299;SDS011;42209;6.376;-10.782;2023-08-01T13:26:28;3.78;;;1.40;;
56299;SDS011;42209;6.376;-10.782;2023-08-01T13:28:58;4.93;;;2.20;;
56299;SDS011;42209;6.376;-10.782;2023-08-01T13:33:55;5.05;;;2.00;;
56299;SDS011;42209;6.376;-10.782;2023-08-01T13:36:24;2.35;;;1.38;;
56299;SDS011;42209;6.376;-10.782;2023-08-01T13:38:53;3.65;;;1.80;;
56299;SDS011;42209;6.376;-10.782;2023-08-01T13:41:21;3.03;;;1.95;;
56299;SDS011;42209;6.376;-10.782;2023-08-01T13:43:50;4.72;;;2.35;;
56299;SDS011;42209;6.376;-10.782;2023-08-01T13:46:19;2.40;;;1.25;;
56299;SDS011;42209;6.376;-10.782;2023-08-01T13:49:07;2.00;;;1.40;;
56299;SDS011;42209;6.376;-10.782;2023-08-01T13:51:37;3.30;;;1.85;;
56299;SDS011;42209;6.376;-10.782;2023-08-01T13:54:05;2.67;;;1.27;;
56299;SDS011;42209;6.376;-10.782;2023-08-01T13:56:33;3.03;;;2.03;;
56299;SDS011;42209;6.376;-10.782;2023-08-01T13:59:05;3.97;;;1.80;;
56299;SDS011;42209;6.376;-10.782;2023-08-01T14:01:34;2.10;;;1.70;;
56299;SDS011;42209;6.376;-10.782;2023-08-01T14:04:02;2.00;;;1.40;;
56299;SDS011;42209;6.376;-10.782;2023-08-01T14:06:31;2.03;;;1.58;;
56299;SDS011;42209;6.376;-10.782;2023-08-01T14:11:29;2.88;;;1.33;;
56299;SDS011;42209;6.376;-10.782;2023-08-01T14:13:57;4.45;;;2.03;;
56299;SDS011;42209;6.376;-10.782;2023-08-01T14:16:26;2.58;;;1.70;;
56299;SDS011;42209;6.376;-10.782;2023-08-01T14:21:22;2.85;;;1.98;;
56299;SDS011;42209;6.376;-10.782;2023-08-01T14:26:19;3.90;;;2.00;;
56299;SDS011;42209;6.376;-10.782;2023-08-01T14:28:48;2.20;;;1.23;;
56299;SDS011;42209;6.376;-10.782;2023-08-01T14:31:16;2.40;;;1.13;;
56299;SDS011;42209;6.376;-10.782;2023-08-01T14:33:45;1.58;;;1.10;;
56299;SDS011;42209;6.376;-10.782;2023-08-01T14:38:42;1.95;;;1.13;;
56299;SDS011;42209;6.376;-10.782;2023-08-01T14:41:11;2.50;;;1.38;;
56299;SDS011;42209;6.376;-10.782;2023-08-01T14:46:27;2.83;;;1.48;;
56299;SDS011;42209;6.376;-10.782;2023-08-01T14:48:56;2.03;;;1.30;;
56299;SDS011;42209;6.376;-10.782;2023-08-01T14:51:24;2.70;;;1.15;;
56299;SDS011;42209;6.376;-10.782;2023-08-01T14:53:53;1.48;;;1.05;;
56299;SDS011;42209;6.376;-10.782;2023-08-01T14:56:22;2.58;;;1.17;;
56299;SDS011;42209;6.376;-10.782;2023-08-01T14:58:50;1.75;;;1.40;;
56299;SDS011;42209;6.376;-10.782;2023-08-01T15:01:19;1.73;;;0.90;;
56299;SDS011;42209;6.376;-10.782;2023-08-01T15:03:47;1.80;;;1.00;;
56299;SDS011;42209;6.376;-10.782;2023-08-01T15:06:16;1.95;;;1.00;;
56299;SDS011;42209;6.376;-10.782;2023-08-01T15:08:44;2.25;;;1.33;;
56299;SDS011;42209;6.376;-10.782;2023-08-01T15:13:41;1.52;;;1.05;;
56299;SDS011;42209;6.376;-10.782;2023-08-01T15:16:10;3.45;;;1.30;;
56299;SDS011;42209;6.376;-10.782;2023-08-01T15:18:40;3.13;;;1.40;;
56299;SDS011;42209;6.376;-10.782;2023-08-01T15:21:08;2.53;;;1.25;;
56299;SDS011;42209;6.376;-10.782;2023-08-01T15:23:37;1.60;;;0.98;;
56299;SDS011;42209;6.376;-10.782;2023-08-01T15:26:05;3.53;;;1.20;;
56299;SDS011;42209;6.376;-10.782;2023-08-01T15:28:34;1.20;;;0.80;;
56299;SDS011;42209;6.376;-10.782;2023-08-01T15:33:36;2.67;;;1.30;;
56299;SDS011;42209;6.376;-10.782;2023-08-01T15:36:06;2.60;;;1.48;;
56299;SDS011;42209;6.376;-10.782;2023-08-01T15:38:36;1.50;;;1.17;;
56299;SDS011;42209;6.376;-10.782;2023-08-01T15:41:06;2.30;;;0.95;;
56299;SDS011;42209;6.376;-10.782;2023-08-01T15:43:39;3.42;;;1.58;;
56299;SDS011;42209;6.376;-10.782;2023-08-01T15:46:08;2.10;;;0.90;;
56299;SDS011;42209;6.376;-10.782;2023-08-01T15:48:37;2.85;;;0.95;;